Time;durP1;ratioP1;P1;durP2;ratioP2;P2;SDS_P1;SDS_P2;PMS_P1;PMS_P2;Temp;Humidity;BMP_temperature;BMP_pressure;BME280_temperature;BME280_humidity;BME280_pressure;Samples;Min_cycle;Max_cycle;Signal;HPM_P1;HPM_P2
2022/02/27 00:01:24;;;;;;;2.55;0.45;;;0.20;99.90;;;;;;5010857;28;20028;-78
2022/02/27 00:03:49;;;;;;;2.20;0.32;;;0.30;99.90;;;;;;5011514;28;20116;-78
2022/02/27 00:06:15;;;;;;;4.45;0.50;;;0.40;99.90;;;;;;5015396;28;20028;-78
2022/02/27 00:08:41;;;;;;;3.53;0.50;;;0.40;99.90;;;;;;5009680;28;20044;-79
2022/02/27 00:11:06;;;;;;;3.47;0.60;;;0.30;99.90;;;;;;5026055;28;20084;-77
2022/02/27 00:13:32;;;;;;;3.95;0.75;;;0.20;99.90;;;;;;5015174;28;20537;-79
2022/02/27 00:15:58;;;;;;;2.47;0.68;;;0.20;99.90;;;;;;5011681;28;20041;-78
2022/02/27 00:18:24;;;;;;;1.63;0.40;;;0.20;99.90;;;;;;5010474;28;20498;-78
2022/02/27 00:20:51;;;;;;;3.88;0.50;;;0.10;99.90;;;;;;4994475;28;20036;-78
2022/02/27 00:23:16;;;;;;;2.35;0.47;;;0.10;99.90;;;;;;5009435;28;20075;-78
2022/02/27 00:25:42;;;;;;;3.15;0.40;;;-0.10;99.90;;;;;;5021612;28;20604;-78
2022/02/27 00:28:08;;;;;;;3.05;0.60;;;0.00;99.90;;;;;;5011260;28;20042;-79
2022/02/27 00:30:36;;;;;;;2.03;0.50;;;0.00;99.90;;;;;;5011980;28;20651;-78
2022/02/27 00:33:03;;;;;;;2.70;0.50;;;-0.10;99.90;;;;;;5009631;28;20029;-78
2022/02/27 00:35:29;;;;;;;2.17;0.50;;;-0.20;99.90;;;;;;4994074;28;20415;-79
2022/02/27 00:37:56;;;;;;;2.58;0.47;;;-0.40;99.90;;;;;;5026097;28;20094;-78
2022/02/27 00:40:22;;;;;;;1.33;0.50;;;-0.50;99.90;;;;;;5010286;28;20030;-78
2022/02/27 00:42:47;;;;;;;1.13;0.40;;;-0.50;99.90;;;;;;4994635;28;20040;-78
2022/02/27 00:45:13;;;;;;;2.08;0.40;;;-0.50;99.90;;;;;;5025037;28;20032;-78
2022/02/27 00:47:39;;;;;;;2.90;0.50;;;-0.40;99.90;;;;;;5009855;28;20181;-78
2022/02/27 00:50:05;;;;;;;2.35;0.50;;;-0.40;99.90;;;;;;4999058;28;20134;-78
2022/02/27 00:52:31;;;;;;;3.30;0.50;;;-0.40;99.90;;;;;;5009304;28;20030;-78
2022/02/27 00:54:57;;;;;;;3.15;0.70;;;-0.50;99.90;;;;;;4993407;28;20474;-78
2022/02/27 00:57:23;;;;;;;3.78;0.70;;;-0.40;99.90;;;;;;4992030;28;20049;-77
2022/02/27 00:59:50;;;;;;;2.65;0.45;;;-0.60;99.90;;;;;;5009128;28;20021;-78
2022/02/27 01:02:16;;;;;;;2.53;0.43;;;-0.60;99.90;;;;;;5025801;28;20098;-79
2022/02/27 01:04:42;;;;;;;2.67;0.35;;;-0.70;99.90;;;;;;4993491;28;20552;-78
2022/02/27 01:07:08;;;;;;;4.15;0.50;;;-0.70;99.90;;;;;;5011060;28;21361;-77
2022/02/27 01:09:34;;;;;;;1.20;0.40;;;-0.80;99.90;;;;;;5008466;28;20037;-78
2022/02/27 01:11:59;;;;;;;2.42;0.40;;;-0.60;99.90;;;;;;5026042;28;20375;-78
2022/02/27 01:14:25;;;;;;;1.77;0.40;;;-0.40;99.90;;;;;;5008722;28;20018;-78
2022/02/27 01:16:51;;;;;;;3.45;0.55;;;-0.50;99.90;;;;;;5024664;28;20037;-77
2022/02/27 01:19:18;;;;;;;2.17;0.40;;;-0.60;99.90;;;;;;5024987;28;20076;-78
2022/02/27 01:21:43;;;;;;;2.05;0.40;;;-0.60;99.90;;;;;;5009248;28;20033;-77
2022/02/27 01:24:09;;;;;;;4.80;0.63;;;-0.60;99.90;;;;;;5009247;28;20034;-78
2022/02/27 01:26:35;;;;;;;1.77;0.40;;;-0.50;99.90;;;;;;5020942;28;20036;-79
2022/02/27 01:29:01;;;;;;;2.05;0.50;;;-0.60;99.90;;;;;;5009492;28;20056;-78
2022/02/27 01:31:27;;;;;;;1.45;0.40;;;-0.70;99.90;;;;;;5026861;28;20025;-78
2022/02/27 01:33:52;;;;;;;3.13;0.50;;;-0.70;99.90;;;;;;5010924;28;20029;-78
2022/02/27 01:36:18;;;;;;;1.63;0.40;;;-0.70;99.90;;;;;;5020510;28;20097;-78
2022/02/27 01:38:45;;;;;;;2.65;0.50;;;-0.70;99.90;;;;;;5008336;28;20033;-78
2022/02/27 01:41:15;;;;;;;1.63;0.40;;;-0.80;99.90;;;;;;5008575;28;20037;-78
2022/02/27 01:43:42;;;;;;;1.55;0.30;;;-1.00;99.90;;;;;;5007984;28;20099;-78
2022/02/27 01:46:09;;;;;;;1.80;0.55;;;-1.00;99.90;;;;;;5025296;28;20065;-78
2022/02/27 01:48:36;;;;;;;3.10;0.50;;;-0.80;99.90;;;;;;5008735;28;20056;-77
2022/02/27 01:51:02;;;;;;;2.33;0.50;;;-1.00;99.90;;;;;;5009286;28;20039;-78
2022/02/27 01:53:30;;;;;;;2.28;0.50;;;-1.00;99.90;;;;;;5007851;28;20152;-78
2022/02/27 01:55:56;;;;;;;2.22;0.50;;;-1.10;99.90;;;;;;5025894;28;20505;-79
2022/02/27 01:58:22;;;;;;;2.45;0.45;;;-1.00;99.90;;;;;;5007809;28;20042;-78
2022/02/27 02:00:48;;;;;;;3.28;0.50;;;-1.00;99.90;;;;;;5002139;28;20033;-78
2022/02/27 02:03:14;;;;;;;2.60;0.60;;;-0.80;99.90;;;;;;5025571;28;20034;-78
2022/02/27 02:05:39;;;;;;;2.65;0.60;;;-0.90;99.90;;;;;;5024708;28;20033;-77
2022/02/27 02:08:05;;;;;;;2.10;0.30;;;-1.10;99.90;;;;;;5024840;28;20159;-77
2022/02/27 02:10:32;;;;;;;2.67;0.40;;;-0.90;99.90;;;;;;5012868;28;20769;-78
2022/02/27 02:13:01;;;;;;;2.00;0.40;;;-0.90;99.90;;;;;;5013057;28;20549;-78
2022/02/27 02:15:27;;;;;;;2.83;0.50;;;-1.10;99.90;;;;;;4995856;28;20040;-78
2022/02/27 02:17:53;;;;;;;3.75;0.50;;;-1.00;99.90;;;;;;5001662;28;22596;-78
2022/02/27 02:20:20;;;;;;;2.17;0.38;;;-1.00;99.90;;;;;;5029430;28;20545;-78
2022/02/27 02:22:53;;;;;;;1.83;0.63;;;-1.00;99.90;;;;;;5024706;28;20030;-78
2022/02/27 02:25:19;;;;;;;3.97;0.47;;;-1.10;99.90;;;;;;5011056;28;21359;-77
2022/02/27 02:27:45;;;;;;;3.92;0.40;;;-1.20;99.90;;;;;;5012381;28;20034;-77
2022/02/27 02:30:12;;;;;;;1.75;0.60;;;-1.30;99.90;;;;;;5012821;28;20028;-78
2022/02/27 02:32:54;;;;;;;3.28;0.40;;;-1.30;99.90;;;;;;5023748;28;20025;-77
2022/02/27 02:35:23;;;;;;;2.97;0.40;;;-1.30;99.90;;;;;;5011641;28;20408;-77
2022/02/27 02:37:49;;;;;;;1.85;0.47;;;-1.10;99.90;;;;;;5011863;28;20533;-77
2022/02/27 02:40:15;;;;;;;2.60;0.45;;;-1.20;99.90;;;;;;5012741;28;20037;-77
2022/02/27 02:42:42;;;;;;;2.92;0.60;;;-1.30;99.90;;;;;;5011020;28;20038;-77
2022/02/27 02:45:08;;;;;;;1.88;0.50;;;-1.30;99.90;;;;;;5028326;28;20029;-77
2022/02/27 02:47:38;;;;;;;2.53;0.50;;;-1.40;99.90;;;;;;4997672;28;20038;-77
2022/02/27 02:50:04;;;;;;;3.20;0.40;;;-1.60;99.90;;;;;;5027764;28;20036;-77
2022/02/27 02:52:29;;;;;;;3.22;0.40;;;-1.70;99.90;;;;;;5027950;28;20049;-77
2022/02/27 02:54:55;;;;;;;2.00;0.45;;;-1.40;99.90;;;;;;5012586;28;20113;-77
2022/02/27 02:57:21;;;;;;;2.42;0.40;;;-1.40;99.90;;;;;;5025092;28;20120;-77
2022/02/27 02:59:46;;;;;;;1.73;0.35;;;-1.40;99.90;;;;;;5023483;28;20030;-77
2022/02/27 03:02:12;;;;;;;2.25;0.40;;;-1.50;99.90;;;;;;5023927;28;20037;-77
2022/02/27 03:04:38;;;;;;;1.70;0.30;;;-1.30;99.90;;;;;;4995763;28;20029;-76
2022/02/27 03:07:04;;;;;;;3.90;0.50;;;-1.20;99.90;;;;;;5010232;28;20371;-76
2022/02/27 03:09:31;;;;;;;2.13;0.40;;;-1.10;99.90;;;;;;5025827;28;20033;-77
2022/02/27 03:11:56;;;;;;;3.88;0.40;;;-1.10;99.90;;;;;;5011687;28;20080;-77
2022/02/27 03:14:22;;;;;;;2.60;0.40;;;-1.00;99.90;;;;;;5013814;28;20045;-78
2022/02/27 03:16:48;;;;;;;3.97;0.50;;;-1.10;99.90;;;;;;5011973;28;20045;-80
2022/02/27 03:19:13;;;;;;;3.40;0.40;;;-0.90;99.90;;;;;;5010763;28;20191;-77
2022/02/27 03:21:39;;;;;;;3.38;0.38;;;-1.00;99.90;;;;;;5010635;28;20128;-77
2022/02/27 03:24:05;;;;;;;3.97;0.43;;;-1.10;99.90;;;;;;5028014;28;20128;-78
2022/02/27 03:26:31;;;;;;;2.55;0.40;;;-1.00;99.90;;;;;;4990202;28;20044;-77
2022/02/27 03:28:56;;;;;;;2.17;0.40;;;-1.10;99.90;;;;;;5006629;28;20034;-77
2022/02/27 03:31:22;;;;;;;2.47;0.43;;;-0.90;99.90;;;;;;5027172;28;20068;-78
2022/02/27 03:33:48;;;;;;;2.15;0.40;;;-1.10;99.90;;;;;;5009980;28;20038;-76
2022/02/27 03:36:14;;;;;;;2.20;0.30;;;-0.90;99.90;;;;;;5011531;28;20037;-76
2022/02/27 03:38:40;;;;;;;1.95;0.40;;;-0.80;99.90;;;;;;5009021;28;20096;-77
2022/02/27 03:41:06;;;;;;;4.38;0.70;;;-0.80;99.90;;;;;;5024037;28;20039;-77
2022/02/27 03:43:32;;;;;;;4.07;0.40;;;-0.90;99.90;;;;;;5010754;28;20033;-77
2022/02/27 03:45:57;;;;;;;3.38;0.50;;;-0.90;99.90;;;;;;5009727;28;20045;-76
2022/02/27 03:48:23;;;;;;;4.30;0.40;;;-0.90;99.90;;;;;;5022562;28;20486;-77
2022/02/27 03:50:48;;;;;;;5.97;0.75;;;-0.80;99.90;;;;;;5009412;28;20032;-77
2022/02/27 03:53:14;;;;;;;4.72;0.47;;;-0.70;99.90;;;;;;5011224;28;20025;-77
2022/02/27 03:55:40;;;;;;;4.22;0.40;;;-0.80;99.90;;;;;;5010982;28;20057;-77
2022/02/27 03:58:05;;;;;;;1.90;0.40;;;-1.00;99.90;;;;;;5010643;28;20536;-77
2022/02/27 04:00:31;;;;;;;4.15;0.50;;;-1.00;99.90;;;;;;5011138;28;20025;-77
2022/02/27 04:02:57;;;;;;;3.38;0.43;;;-1.00;99.90;;;;;;4992789;28;20120;-77
2022/02/27 04:05:22;;;;;;;4.70;0.52;;;-0.90;99.90;;;;;;5021659;28;20026;-76
2022/02/27 04:07:48;;;;;;;2.90;0.40;;;-0.90;99.90;;;;;;5010709;28;20052;-78
2022/02/27 04:10:14;;;;;;;4.38;0.50;;;-0.90;99.90;;;;;;5027292;28;20831;-78
2022/02/27 04:12:40;;;;;;;2.15;0.60;;;-0.90;99.90;;;;;;5012862;28;20490;-78
2022/02/27 04:15:06;;;;;;;2.08;0.63;;;-0.90;99.90;;;;;;5022493;28;20119;-77
2022/02/27 04:17:32;;;;;;;2.63;0.40;;;-0.80;99.90;;;;;;5007899;28;20183;-77
2022/02/27 04:19:58;;;;;;;3.70;0.60;;;-0.70;99.90;;;;;;5010608;28;20243;-77
2022/02/27 04:22:24;;;;;;;4.32;0.50;;;-0.80;99.90;;;;;;5027047;28;20120;-77
2022/02/27 04:24:49;;;;;;;3.42;0.47;;;-0.70;99.90;;;;;;5022074;28;20033;-77
2022/02/27 04:27:16;;;;;;;3.85;0.50;;;-0.80;99.90;;;;;;4994321;28;22241;-77
2022/02/27 04:29:42;;;;;;;2.65;0.45;;;-0.70;99.90;;;;;;5008511;28;20041;-77
2022/02/27 04:32:08;;;;;;;1.85;0.40;;;-0.80;99.90;;;;;;5009462;28;20544;-77
2022/02/27 04:34:34;;;;;;;3.28;0.40;;;-0.80;99.90;;;;;;5010006;28;20050;-77
2022/02/27 04:37:00;;;;;;;2.22;0.40;;;-0.70;99.90;;;;;;5011489;28;20037;-77
2022/02/27 04:39:25;;;;;;;3.10;0.40;;;-0.70;99.90;;;;;;5010939;28;20076;-76
2022/02/27 04:41:51;;;;;;;1.75;0.40;;;-0.80;99.90;;;;;;5021422;28;20053;-77
2022/02/27 04:44:16;;;;;;;2.35;0.47;;;-0.70;99.90;;;;;;5022117;28;20152;-78
2022/02/27 04:46:42;;;;;;;3.17;0.50;;;-0.70;99.90;;;;;;5007082;28;20079;-78
2022/02/27 04:49:08;;;;;;;1.70;0.40;;;-0.80;99.90;;;;;;4992193;28;20040;-77
2022/02/27 04:51:33;;;;;;;3.13;0.40;;;-0.90;99.90;;;;;;5009700;28;20029;-77
2022/02/27 04:53:59;;;;;;;4.00;0.40;;;-0.90;99.90;;;;;;5022206;28;20638;-78
2022/02/27 04:56:24;;;;;;;3.75;0.40;;;-0.90;99.90;;;;;;5010126;28;20034;-76
2022/02/27 04:58:50;;;;;;;1.88;0.40;;;-0.80;99.90;;;;;;5026155;28;20041;-77
2022/02/27 05:01:16;;;;;;;1.33;0.40;;;-0.80;99.90;;;;;;5009129;28;20025;-76
2022/02/27 05:03:41;;;;;;;2.17;0.50;;;-0.80;99.90;;;;;;5005665;28;20067;-77
2022/02/27 05:06:07;;;;;;;3.28;0.40;;;-0.90;99.90;;;;;;5010489;28;20052;-76
2022/02/27 05:08:32;;;;;;;4.60;0.40;;;-0.90;99.90;;;;;;5010021;28;20040;-77
2022/02/27 05:10:58;;;;;;;3.78;0.60;;;-0.90;99.90;;;;;;5015576;28;20113;-76
2022/02/27 05:13:23;;;;;;;2.03;0.40;;;-1.00;99.90;;;;;;5022635;28;20064;-78
2022/02/27 05:15:49;;;;;;;2.92;0.40;;;-0.90;99.90;;;;;;5008348;28;20037;-78
2022/02/27 05:18:15;;;;;;;2.22;0.45;;;-0.90;99.90;;;;;;5010132;28;22286;-78
2022/02/27 05:20:40;;;;;;;1.60;0.40;;;-1.00;99.90;;;;;;5010946;28;20446;-77
2022/02/27 05:23:06;;;;;;;2.88;0.40;;;-1.10;99.90;;;;;;5009861;28;20505;-77
2022/02/27 05:25:32;;;;;;;2.05;0.40;;;-1.20;99.90;;;;;;4995989;28;20045;-78
2022/02/27 05:27:57;;;;;;;4.75;0.30;;;-1.20;99.90;;;;;;5021908;28;20461;-77
2022/02/27 05:30:24;;;;;;;2.63;0.47;;;-1.20;99.90;;;;;;5009131;28;20493;-76
2022/02/27 05:32:50;;;;;;;1.15;0.20;;;-1.20;99.90;;;;;;5008876;28;20044;-77
2022/02/27 05:35:16;;;;;;;1.40;0.35;;;-1.20;99.90;;;;;;5023608;28;20037;-77
2022/02/27 05:37:42;;;;;;;2.70;0.60;;;-1.10;99.90;;;;;;5009945;28;20044;-77
2022/02/27 05:40:08;;;;;;;1.85;0.40;;;-1.20;99.90;;;;;;5009695;28;20033;-77
2022/02/27 05:42:34;;;;;;;3.00;0.40;;;-1.30;99.90;;;;;;5026416;28;20025;-76
2022/02/27 05:45:02;;;;;;;1.88;0.30;;;-1.30;99.90;;;;;;4993269;28;20489;-77
2022/02/27 05:47:27;;;;;;;2.97;0.40;;;-1.40;99.90;;;;;;4992649;28;20088;-77
2022/02/27 05:49:53;;;;;;;1.33;0.30;;;-1.40;99.90;;;;;;5025818;28;20068;-78
2022/02/27 05:52:19;;;;;;;2.83;0.40;;;-1.40;99.90;;;;;;5015827;28;20121;-76
2022/02/27 05:54:46;;;;;;;2.05;0.50;;;-1.40;99.90;;;;;;5008860;28;20049;-76
2022/02/27 05:57:12;;;;;;;2.72;0.40;;;-1.30;99.90;;;;;;4994095;28;20034;-77
2022/02/27 05:59:38;;;;;;;2.80;0.30;;;-1.30;99.90;;;;;;4993413;28;20497;-77
2022/02/27 06:02:03;;;;;;;1.25;0.40;;;-1.30;99.90;;;;;;5022375;28;20026;-78
2022/02/27 06:04:29;;;;;;;2.95;0.40;;;-1.50;99.90;;;;;;4992821;28;20482;-77
2022/02/27 06:06:55;;;;;;;1.98;0.30;;;-1.40;99.90;;;;;;5009477;28;20037;-77
2022/02/27 06:09:21;;;;;;;1.52;0.30;;;-1.50;99.90;;;;;;5007247;28;20053;-77
2022/02/27 06:11:46;;;;;;;1.10;0.30;;;-1.60;99.90;;;;;;5009658;28;20137;-76
2022/02/27 06:14:12;;;;;;;1.98;0.40;;;-1.70;99.90;;;;;;4992158;28;20080;-77
2022/02/27 06:16:38;;;;;;;2.78;0.40;;;-1.70;99.90;;;;;;5008451;28;20057;-76
2022/02/27 06:19:03;;;;;;;2.97;0.40;;;-1.60;99.90;;;;;;5009421;28;20103;-76
2022/02/27 06:21:29;;;;;;;2.05;0.40;;;-1.50;99.90;;;;;;5008507;28;20635;-78
2022/02/27 06:23:55;;;;;;;2.90;0.52;;;-1.40;99.90;;;;;;5007909;28;20383;-76
2022/02/27 06:26:20;;;;;;;3.40;0.55;;;-1.40;99.90;;;;;;5011106;28;20354;-77
2022/02/27 06:28:47;;;;;;;3.22;0.40;;;-1.40;99.90;;;;;;5009289;28;20134;-76
2022/02/27 06:31:13;;;;;;;2.45;0.40;;;-1.40;99.90;;;;;;5026869;28;20091;-76
2022/02/27 06:33:39;;;;;;;1.48;0.40;;;-1.40;99.90;;;;;;5008144;28;20030;-76
2022/02/27 06:36:04;;;;;;;1.95;0.38;;;-1.30;99.90;;;;;;5011060;28;20032;-77
2022/02/27 06:38:30;;;;;;;2.40;0.38;;;-1.40;99.90;;;;;;5008203;28;20176;-76
2022/02/27 06:40:56;;;;;;;1.92;0.30;;;-1.40;99.90;;;;;;4992760;28;20029;-76
2022/02/27 06:43:21;;;;;;;3.40;0.40;;;-1.30;99.90;;;;;;5007664;28;20493;-76
2022/02/27 06:45:47;;;;;;;3.03;0.40;;;-1.20;99.90;;;;;;5009325;28;20619;-76
2022/02/27 06:48:12;;;;;;;2.97;0.50;;;-1.10;99.90;;;;;;5026345;28;20025;-76
2022/02/27 06:50:38;;;;;;;3.60;0.70;;;-1.00;99.90;;;;;;4991839;28;20039;-79
2022/02/27 06:53:03;;;;;;;4.72;1.27;;;-0.90;99.90;;;;;;4993917;28;20185;-77
2022/02/27 06:55:29;;;;;;;4.43;0.60;;;-0.90;99.90;;;;;;5009977;28;20030;-78
2022/02/27 06:57:55;;;;;;;1.30;0.40;;;-0.90;99.90;;;;;;5010832;28;20041;-76
2022/02/27 07:00:20;;;;;;;3.05;0.43;;;-0.90;99.90;;;;;;5023600;28;20553;-76
2022/02/27 07:02:47;;;;;;;1.80;0.38;;;-0.80;99.90;;;;;;5010447;28;20154;-81
2022/02/27 07:05:13;;;;;;;1.77;0.40;;;-0.90;99.90;;;;;;5028541;28;20473;-83
2022/02/27 07:07:39;;;;;;;3.63;0.40;;;-0.70;99.90;;;;;;5030776;28;20038;-81
2022/02/27 07:10:06;;;;;;;3.60;0.60;;;-0.80;99.90;;;;;;5024462;28;20025;-85
2022/02/27 07:12:36;;;;;;;4.85;0.50;;;-0.70;99.90;;;;;;5022317;28;20044;-77
2022/02/27 07:15:03;;;;;;;2.83;0.70;;;-0.70;99.90;;;;;;4996878;28;20029;-80
2022/02/27 07:17:28;;;;;;;1.92;0.60;;;-0.60;99.90;;;;;;5012427;28;20439;-79
2022/02/27 07:19:54;;;;;;;2.97;0.55;;;-0.60;99.90;;;;;;5011631;28;20030;-85
2022/02/27 07:22:20;;;;;;;2.40;0.57;;;-0.60;99.90;;;;;;5013578;28;20056;-80
2022/02/27 07:24:47;;;;;;;3.72;0.50;;;-0.60;99.90;;;;;;5012081;28;20025;-79
2022/02/27 07:27:13;;;;;;;3.00;0.45;;;-0.50;99.90;;;;;;5014504;28;20029;-80
2022/02/27 07:29:40;;;;;;;2.13;0.50;;;-0.50;99.90;;;;;;5028052;28;20034;-80
2022/02/27 07:32:07;;;;;;;5.22;0.50;;;-0.40;99.90;;;;;;5013635;28;20115;-85
2022/02/27 07:34:33;;;;;;;3.08;0.55;;;-0.40;99.90;;;;;;4995884;28;20029;-79
2022/02/27 07:36:59;;;;;;;2.03;0.45;;;-0.40;99.90;;;;;;5011889;28;20044;-78
2022/02/27 07:39:26;;;;;;;3.70;0.50;;;-0.30;99.90;;;;;;5011376;28;20486;-83
2022/02/27 07:41:52;;;;;;;2.50;0.63;;;-0.30;99.90;;;;;;5013470;28;20653;-82
2022/02/27 07:44:19;;;;;;;4.60;0.60;;;-0.10;99.90;;;;;;5012248;28;20250;-85
2022/02/27 07:46:47;;;;;;;3.83;0.60;;;-0.20;99.90;;;;;;4989790;28;20053;-80
2022/02/27 07:49:13;;;;;;;3.28;0.47;;;-0.10;99.90;;;;;;5012844;28;20083;-78
2022/02/27 07:51:39;;;;;;;2.05;0.70;;;0.10;99.90;;;;;;4995732;28;20037;-77
2022/02/27 07:54:05;;;;;;;2.15;0.50;;;0.20;99.90;;;;;;5013795;28;20526;-78
2022/02/27 07:56:31;;;;;;;3.53;0.55;;;0.10;99.90;;;;;;5026489;28;20086;-77
2022/02/27 07:58:57;;;;;;;3.78;0.85;;;0.20;99.90;;;;;;5012060;28;20044;-77
2022/02/27 08:01:22;;;;;;;1.90;0.60;;;0.30;99.90;;;;;;5028615;28;20420;-77
2022/02/27 08:03:48;;;;;;;3.58;0.55;;;0.20;99.90;;;;;;5008694;28;20145;-77
2022/02/27 08:06:14;;;;;;;3.40;0.50;;;0.40;99.90;;;;;;5010471;28;20032;-77
2022/02/27 08:08:39;;;;;;;2.45;0.60;;;0.50;99.90;;;;;;5021437;28;20029;-77
2022/02/27 08:11:07;;;;;;;5.35;1.05;;;0.70;99.90;;;;;;5021818;28;20466;-79
2022/02/27 08:13:33;;;;;;;2.95;0.80;;;0.90;99.90;;;;;;5011843;28;20040;-77
2022/02/27 08:15:58;;;;;;;3.78;0.88;;;1.10;99.90;;;;;;5012642;28;20033;-80
2022/02/27 08:18:25;;;;;;;2.28;0.68;;;1.30;99.90;;;;;;5012630;28;20065;-79
2022/02/27 08:20:51;;;;;;;3.13;0.75;;;1.50;99.90;;;;;;5012200;28;20070;-78
2022/02/27 08:23:18;;;;;;;2.60;0.90;;;1.60;99.90;;;;;;5011632;28;20343;-78
2022/02/27 08:25:44;;;;;;;3.05;0.60;;;1.70;99.90;;;;;;5009489;28;20022;-79
2022/02/27 08:28:10;;;;;;;4.13;0.88;;;1.90;99.90;;;;;;5013529;28;20037;-78
2022/02/27 08:30:36;;;;;;;2.58;0.82;;;2.00;99.90;;;;;;4995391;28;20770;-78
2022/02/27 08:33:01;;;;;;;2.65;0.70;;;2.20;99.90;;;;;;5026274;28;20040;-78
2022/02/27 08:35:27;;;;;;;3.72;0.70;;;2.20;99.90;;;;;;5021957;28;20410;-77
2022/02/27 08:37:53;;;;;;;5.70;1.00;;;2.30;99.90;;;;;;5009425;28;20041;-77
2022/02/27 08:40:19;;;;;;;6.22;1.10;;;2.50;99.90;;;;;;5008833;28;20033;-77
2022/02/27 08:42:44;;;;;;;5.28;1.02;;;2.60;99.90;;;;;;5022098;28;20061;-78
2022/02/27 08:45:10;;;;;;;3.10;0.98;;;2.80;99.90;;;;;;5022969;28;20025;-78
2022/02/27 08:47:36;;;;;;;6.07;1.08;;;2.90;99.90;;;;;;5009240;28;20094;-78
2022/02/27 08:50:03;;;;;;;4.60;1.20;;;3.00;99.90;;;;;;5010742;28;20079;-79
2022/02/27 08:52:29;;;;;;;4.75;1.10;;;3.00;99.90;;;;;;5009187;28;20080;-79
2022/02/27 08:54:54;;;;;;;6.28;1.55;;;3.20;99.90;;;;;;5022371;28;20827;-79
2022/02/27 08:57:20;;;;;;;4.38;1.10;;;3.30;99.90;;;;;;5010829;28;20033;-78
2022/02/27 08:59:45;;;;;;;5.20;1.15;;;3.40;99.90;;;;;;5026449;28;20037;-78
2022/02/27 09:02:11;;;;;;;4.78;1.20;;;3.50;99.90;;;;;;5010802;28;20505;-77
2022/02/27 09:04:37;;;;;;;4.32;1.13;;;3.60;99.90;;;;;;5020771;28;20030;-77
2022/02/27 09:07:03;;;;;;;4.97;1.15;;;3.60;99.90;;;;;;5022952;28;20061;-77
2022/02/27 09:09:28;;;;;;;3.92;1.10;;;3.80;99.90;;;;;;5010234;28;20069;-78
2022/02/27 09:11:54;;;;;;;6.47;1.60;;;3.90;99.90;;;;;;5008979;28;20064;-79
2022/02/27 09:14:19;;;;;;;3.15;1.15;;;4.00;99.90;;;;;;5011006;28;20041;-78
2022/02/27 09:16:45;;;;;;;5.82;1.73;;;4.00;99.90;;;;;;5009055;28;20247;-79
2022/02/27 09:19:10;;;;;;;4.18;1.10;;;4.20;99.90;;;;;;4991819;28;20460;-78
2022/02/27 09:21:38;;;;;;;6.43;1.35;;;4.20;99.90;;;;;;5009445;28;20045;-79
2022/02/27 09:24:04;;;;;;;3.72;1.35;;;4.30;99.90;;;;;;5011621;28;20061;-81
2022/02/27 09:26:29;;;;;;;3.83;1.17;;;4.40;99.90;;;;;;5025505;28;20042;-78
2022/02/27 09:28:55;;;;;;;5.03;1.45;;;4.50;99.90;;;;;;5012168;28;20104;-88
2022/02/27 09:31:21;;;;;;;4.72;1.00;;;4.50;99.90;;;;;;5029530;28;20029;-88
2022/02/27 09:33:46;;;;;;;4.85;0.93;;;4.80;99.90;;;;;;4977019;28;20030;-84
2022/02/27 09:36:12;;;;;;;5.43;0.90;;;4.90;99.90;;;;;;5020723;28;20048;-81
2022/02/27 09:38:38;;;;;;;4.15;0.93;;;5.00;99.90;;;;;;5025762;28;20494;-78
2022/02/27 09:41:05;;;;;;;3.42;0.65;;;5.00;99.90;;;;;;5025432;28;20038;-78
2022/02/27 09:43:30;;;;;;;4.22;0.70;;;5.00;99.90;;;;;;5025210;28;20044;-89
2022/02/27 09:45:56;;;;;;;3.22;0.65;;;5.10;99.90;;;;;;5024829;28;20046;-87
2022/02/27 09:48:22;;;;;;;3.33;0.90;;;5.30;99.90;;;;;;5010562;28;20029;-86
2022/02/27 09:50:49;;;;;;;3.55;0.98;;;5.30;99.90;;;;;;4994553;28;20048;-88
2022/02/27 09:53:15;;;;;;;4.25;1.00;;;5.20;99.90;;;;;;5024889;28;20083;-84
2022/02/27 09:55:41;;;;;;;4.80;1.10;;;5.30;99.90;;;;;;5010680;28;20022;-79
2022/02/27 09:58:06;;;;;;;5.60;1.13;;;5.40;99.90;;;;;;5010827;28;20459;-83
2022/02/27 10:00:33;;;;;;;3.90;1.08;;;5.50;99.90;;;;;;5008886;28;20030;-85
2022/02/27 10:03:06;;;;;;;3.85;0.88;;;5.70;99.90;;;;;;5012288;28;20124;-81
2022/02/27 10:05:33;;;;;;;3.08;1.25;;;5.90;99.90;;;;;;5009190;28;20332;-87
2022/02/27 10:08:00;;;;;;;3.70;0.90;;;5.90;99.90;;;;;;5006502;28;20032;-82
2022/02/27 10:10:27;;;;;;;4.22;0.80;;;6.10;99.90;;;;;;5010902;28;20726;-80
2022/02/27 10:12:53;;;;;;;3.70;1.20;;;6.10;99.90;;;;;;5024788;28;20060;-88
2022/02/27 10:15:19;;;;;;;7.13;1.30;;;6.20;99.90;;;;;;5009072;28;20041;-81
2022/02/27 10:17:45;;;;;;;3.70;1.00;;;6.30;99.90;;;;;;5008582;28;20473;-83
2022/02/27 10:20:16;;;;;;;5.20;1.30;;;6.40;99.90;;;;;;5008941;28;20034;-83
2022/02/27 10:22:45;;;;;;;5.13;1.17;;;6.50;99.90;;;;;;5021988;28;20037;-80
2022/02/27 10:25:16;;;;;;;5.47;1.23;;;6.50;99.90;;;;;;5021751;28;20044;-86
2022/02/27 10:28:04;;;;;;;3.85;1.10;;;6.40;99.90;;;;;;5008460;28;20045;-81
2022/02/27 10:30:33;;;;;;;5.00;1.17;;;6.70;99.90;;;;;;5011791;28;20042;-86
2022/02/27 10:33:08;;;;;;;4.35;1.00;;;6.70;99.90;;;;;;4995297;28;20025;-82
2022/02/27 10:35:45;;;;;;;4.72;0.93;;;6.80;99.90;;;;;;4994706;28;20040;-85
2022/02/27 10:41:10;;;;;;;3.47;0.80;;;6.90;99.90;;;;;;5012277;28;20449;-80
2022/02/27 10:43:42;;;;;;;3.67;1.20;;;7.10;99.90;;;;;;5006444;28;20401;-88
2022/02/27 10:46:08;;;;;;;5.85;0.93;;;7.20;99.90;;;;;;5028406;28;20049;-87
2022/02/27 10:48:34;;;;;;;3.35;0.90;;;7.10;99.90;;;;;;5012234;28;20038;-84
2022/02/27 10:51:11;;;;;;;4.28;1.15;;;7.10;99.90;;;;;;5024409;28;20047;-83
2022/02/27 10:53:42;;;;;;;5.70;1.23;;;7.40;99.90;;;;;;4994840;28;20045;-82
2022/02/27 10:56:09;;;;;;;5.97;1.17;;;7.20;99.90;;;;;;5011279;28;20054;-82
2022/02/27 10:58:46;;;;;;;5.40;1.45;;;7.30;99.90;;;;;;5013365;28;20079;-84
2022/02/27 11:01:20;;;;;;;4.22;1.10;;;7.30;99.90;;;;;;5012676;28;20060;-81
2022/02/27 11:03:51;;;;;;;4.95;1.33;;;7.50;99.90;;;;;;4993891;28;20087;-81
2022/02/27 11:06:18;;;;;;;5.13;1.00;;;7.60;99.90;;;;;;5013302;28;20664;-80
2022/02/27 11:08:44;;;;;;;2.78;0.95;;;7.70;99.90;;;;;;5027279;28;20036;-80
2022/02/27 11:11:11;;;;;;;1.88;0.70;;;7.80;99.90;;;;;;5013721;28;20121;-80
2022/02/27 11:13:37;;;;;;;5.10;1.20;;;7.80;99.90;;;;;;5023824;28;20030;-81
2022/02/27 11:16:03;;;;;;;4.65;0.82;;;7.70;99.90;;;;;;4996233;28;20057;-80
2022/02/27 11:18:29;;;;;;;3.30;0.60;;;7.90;99.90;;;;;;5010052;28;20041;-80
2022/02/27 11:20:56;;;;;;;4.72;1.05;;;8.00;99.90;;;;;;4996141;28;20029;-81
2022/02/27 11:23:23;;;;;;;2.65;0.93;;;7.90;99.90;;;;;;4996602;28;20029;-80
2022/02/27 11:25:50;;;;;;;3.47;0.90;;;7.80;99.90;;;;;;5027193;28;20081;-80
2022/02/27 11:28:19;;;;;;;4.88;1.05;;;7.90;99.90;;;;;;5013309;28;20033;-80
2022/02/27 11:30:48;;;;;;;6.83;0.93;;;8.00;99.90;;;;;;5013873;28;20033;-82
2022/02/27 11:33:17;;;;;;;3.45;0.88;;;7.90;99.90;;;;;;4994802;28;20034;-82
2022/02/27 11:35:49;;;;;;;2.28;0.82;;;8.30;99.90;;;;;;5011635;28;20040;-81
2022/02/27 11:38:30;;;;;;;2.45;0.68;;;8.30;99.90;;;;;;5029163;28;20678;-79
2022/02/27 11:41:09;;;;;;;3.92;0.88;;;8.40;99.90;;;;;;4990839;28;20037;-81
2022/02/27 11:43:52;;;;;;;3.17;0.80;;;8.50;99.90;;;;;;5010495;28;20556;-81
2022/02/27 11:46:40;;;;;;;3.70;0.68;;;8.50;99.90;;;;;;5027959;28;20058;-81
2022/02/27 11:49:15;;;;;;;3.45;0.55;;;8.70;99.90;;;;;;5012044;28;20063;-81
2022/02/27 11:51:46;;;;;;;3.40;0.60;;;8.70;99.90;;;;;;5028021;28;20416;-80
2022/02/27 11:54:24;;;;;;;3.30;0.70;;;8.50;99.90;;;;;;5010859;28;20025;-81
2022/02/27 11:56:58;;;;;;;3.40;0.60;;;8.70;99.90;;;;;;5032581;28;20025;-80
2022/02/27 11:59:50;;;;;;;3.10;0.85;;;8.70;99.90;;;;;;5034343;28;20037;-82
2022/02/27 12:02:38;;;;;;;2.13;0.63;;;8.90;99.90;;;;;;4998523;28;20592;-82
2022/02/27 12:05:18;;;;;;;2.80;0.90;;;8.80;99.90;;;;;;5014481;28;20037;-83
2022/02/27 12:08:07;;;;;;;3.90;0.70;;;8.90;99.90;;;;;;5033226;28;20095;-81
2022/02/27 12:10:37;;;;;;;3.47;0.50;;;9.00;99.90;;;;;;5014666;28;20025;-82
2022/02/27 12:13:25;;;;;;;2.25;0.50;;;9.00;99.90;;;;;;5019090;28;20284;-83
2022/02/27 12:16:12;;;;;;;2.28;0.50;;;9.00;99.90;;;;;;4993199;28;20053;-83
2022/02/27 12:18:56;;;;;;;2.58;0.60;;;9.20;99.90;;;;;;4979472;28;20053;-84
2022/02/27 12:21:31;;;;;;;2.13;0.50;;;9.30;99.90;;;;;;4979064;28;20025;-80
2022/02/27 12:24:06;;;;;;;3.80;0.60;;;9.30;99.90;;;;;;4963640;28;20474;-81
2022/02/27 12:26:42;;;;;;;3.08;0.50;;;9.20;99.90;;;;;;4982515;28;20041;-85
2022/02/27 12:29:18;;;;;;;4.68;0.80;;;9.20;99.90;;;;;;4996451;28;20104;-82
2022/02/27 12:31:44;;;;;;;2.25;0.40;;;9.20;99.90;;;;;;4978884;28;20029;-82
2022/02/27 12:34:18;;;;;;;2.35;0.50;;;9.40;99.90;;;;;;4994743;28;20147;-78
2022/02/27 12:36:48;;;;;;;2.00;0.50;;;9.30;99.90;;;;;;4974970;28;20799;-79
2022/02/27 12:39:15;;;;;;;1.30;0.40;;;9.30;99.90;;;;;;4993008;28;20041;-80
2022/02/27 12:41:43;;;;;;;2.97;0.70;;;9.30;99.90;;;;;;4978126;28;20033;-81
2022/02/27 12:44:11;;;;;;;4.68;0.50;;;9.50;99.90;;;;;;4975089;28;20061;-83
2022/02/27 12:46:37;;;;;;;2.42;0.50;;;9.20;99.90;;;;;;4959379;28;20662;-80
2022/02/27 12:51:48;;;;;;;1.70;0.40;;;9.50;99.90;;;;;;4989982;28;20655;-79
2022/02/27 12:54:20;;;;;;;2.47;0.50;;;9.50;99.90;;;;;;4974318;28;20042;-79
2022/02/27 12:59:57;;;;;;;1.38;0.30;;;9.30;99.90;;;;;;4987468;28;20170;-78